Time;durP1;ratioP1;P1;durP2;ratioP2;P2;SDS_P1;SDS_P2;PMS_P1;PMS_P2;Temp;Humidity;BMP_temperature;BMP_pressure;BME280_temperature;BME280_humidity;BME280_pressure;Samples;Min_cycle;Max_cycle;Signal;HPM_P1;HPM_P2
2021/04/26 00:01:30;;;;;;;;;;;6.50;99.90;;;;;;4975575;28;19914;-75
2021/04/26 00:03:55;;;;;;;;;;;6.40;99.90;;;;;;4976442;28;19912;-76
2021/04/26 00:06:20;;;;;;;;;;;6.30;99.90;;;;;;4976786;28;19964;-76
2021/04/26 00:08:46;;;;;;;;;;;6.30;99.90;;;;;;4975636;28;19913;-76
2021/04/26 00:11:11;;;;;;;;;;;6.30;99.90;;;;;;4975448;28;19913;-76
2021/04/26 00:13:37;;;;;;;;;;;6.30;99.90;;;;;;4976735;28;20014;-76
2021/04/26 00:16:02;;;;;;;;;;;6.30;99.90;;;;;;4974872;28;19906;-75
2021/04/26 00:18:28;;;;;;;;;;;6.10;99.90;;;;;;4976718;28;19975;-76
2021/04/26 00:20:53;;;;;;;;;;;6.10;99.90;;;;;;4975262;28;19912;-76
2021/04/26 00:23:19;;;;;;;;;;;6.00;99.90;;;;;;4976676;28;20004;-75
2021/04/26 00:25:44;;;;;;;;;;;5.80;99.90;;;;;;4975433;28;19982;-76
2021/04/26 00:28:10;;;;;;;;;;;5.90;99.90;;;;;;4982045;28;19957;-76
2021/04/26 00:30:35;;;;;;;;;;;5.80;99.90;;;;;;4991959;28;19906;-76
2021/04/26 00:33:01;;;;;;;;;;;5.80;99.90;;;;;;4994839;28;19905;-76
2021/04/26 00:35:26;;;;;;;;;;;5.70;99.90;;;;;;4991190;28;20004;-76
2021/04/26 00:37:52;;;;;;;;;;;5.80;99.90;;;;;;4975656;28;19950;-76
2021/04/26 00:40:19;;;;;;;;;;;5.70;99.90;;;;;;4976356;28;19906;-75
2021/04/26 00:42:44;;;;;;;;;;;5.70;99.90;;;;;;4975013;28;19906;-76
2021/04/26 00:45:11;;;;;;;;;;;5.70;99.90;;;;;;4974241;28;19910;-76
2021/04/26 00:47:38;;;;;;;;;;;5.80;99.90;;;;;;4975678;28;19945;-75
2021/04/26 00:50:08;;;;;;;;;;;6.00;99.90;;;;;;4975993;28;20421;-75
2021/04/26 00:52:33;;;;;;;;;;;5.90;99.90;;;;;;4975860;28;19914;-76
2021/04/26 00:54:59;;;;;;;;;;;5.90;99.90;;;;;;4973331;28;19906;-76
2021/04/26 00:57:25;;;;;;;;;;;5.80;99.90;;;;;;4975636;28;19910;-76
2021/04/26 00:59:50;;;;;;;;;;;5.70;99.90;;;;;;4975721;28;19910;-76
2021/04/26 01:02:16;;;;;;;;;;;5.70;99.90;;;;;;4974409;28;19906;-76
2021/04/26 01:04:41;;;;;;;;;;;5.70;99.90;;;;;;4975205;28;20199;-76
2021/04/26 01:07:06;;;;;;;;;;;5.70;99.90;;;;;;4975668;28;19956;-76
2021/04/26 01:09:32;;;;;;;;;;;5.80;99.90;;;;;;4975404;28;20357;-76
2021/04/26 01:12:13;;;;;;;;;;;5.90;99.90;;;;;;4974255;28;19906;-75
2021/04/26 01:15:08;;;;;;;;;;;5.90;99.90;;;;;;4973595;28;19913;-76
2021/04/26 01:17:35;;;;;;;;;;;5.90;99.90;;;;;;4965460;28;19913;-76
2021/04/26 01:20:16;;;;;;;;;;;5.90;99.90;;;;;;4974392;28;20262;-76
2021/04/26 01:22:51;;;;;;;;;;;5.90;99.90;;;;;;4975346;28;19906;-76
2021/04/26 01:25:18;;;;;;;;;;;5.90;99.90;;;;;;4974746;28;20255;-75
2021/04/26 01:27:46;;;;;;;;;;;5.90;99.90;;;;;;4975148;28;19910;-75
2021/04/26 01:30:24;;;;;;;;;;;5.90;99.90;;;;;;4975128;28;19913;-75
2021/04/26 01:32:58;;;;;;;;;;;5.90;99.90;;;;;;4974046;28;20324;-75
2021/04/26 01:35:23;;;;;;;;;;;5.90;99.90;;;;;;4973515;28;19928;-75
2021/04/26 01:38:01;;;;;;;;;;;5.80;99.90;;;;;;4974891;28;20417;-76
2021/04/26 01:40:27;;;;;;;;;;;5.80;99.90;;;;;;4974978;28;19906;-76
2021/04/26 01:42:55;;;;;;;;;;;5.80;99.90;;;;;;4974919;28;19960;-76
2021/04/26 01:45:20;;;;;;;;;;;5.90;99.90;;;;;;4974294;28;19910;-75
2021/04/26 01:47:46;;;;;;;;;;;6.00;99.90;;;;;;4974876;28;19917;-76
2021/04/26 01:50:13;;;;;;;;;;;5.90;99.90;;;;;;4973479;28;20365;-76
2021/04/26 01:52:39;;;;;;;;;;;5.80;99.90;;;;;;4973412;28;19914;-76
2021/04/26 01:55:05;;;;;;;;;;;5.70;99.90;;;;;;4972850;28;19913;-75
2021/04/26 01:57:31;;;;;;;;;;;5.60;99.90;;;;;;4973299;28;19988;-76
2021/04/26 01:59:57;;;;;;;;;;;5.70;99.90;;;;;;4974387;28;19945;-76
2021/04/26 02:02:23;;;;;;;;;;;5.70;99.90;;;;;;4973302;28;20371;-76
2021/04/26 02:04:49;;;;;;;;;;;5.70;99.90;;;;;;4972760;28;20005;-76
2021/04/26 02:07:15;;;;;;;;;;;5.80;99.90;;;;;;4973126;28;19910;-76
2021/04/26 02:09:41;;;;;;;;;;;5.80;99.90;;;;;;4973273;28;19909;-76
2021/04/26 02:12:11;;;;;;;;;;;5.80;99.90;;;;;;4974311;28;19913;-76
2021/04/26 02:14:38;;;;;;;;;;;5.70;99.90;;;;;;4974286;28;19906;-75
2021/04/26 02:17:04;;;;;;;;;;;5.70;99.90;;;;;;4973028;28;19906;-75
2021/04/26 02:19:29;;;;;;;;;;;5.90;99.90;;;;;;4974191;28;19906;-76
2021/04/26 02:21:55;;;;;;;;;;;5.80;99.90;;;;;;4974231;28;19906;-76
2021/04/26 02:24:20;;;;;;;;;;;5.80;99.90;;;;;;4972370;28;19957;-76
2021/04/26 02:26:45;;;;;;;;;;;5.80;99.90;;;;;;4974042;28;19965;-76
2021/04/26 02:29:11;;;;;;;;;;;5.90;99.90;;;;;;4973743;28;19906;-76
2021/04/26 02:31:38;;;;;;;;;;;5.80;99.90;;;;;;4972873;28;19910;-76
2021/04/26 02:34:09;;;;;;;;;;;5.80;99.90;;;;;;4973441;28;19918;-75
2021/04/26 02:36:37;;;;;;;;;;;5.80;99.90;;;;;;4974165;28;19906;-76
2021/04/26 02:39:07;;;;;;;;;;;5.80;99.90;;;;;;4973932;28;19906;-76
2021/04/26 02:41:33;;;;;;;;;;;5.70;99.90;;;;;;4973943;28;19906;-76
2021/04/26 02:44:00;;;;;;;;;;;5.70;99.90;;;;;;4972336;28;19988;-75
2021/04/26 02:46:27;;;;;;;;;;;5.70;99.90;;;;;;4972502;28;20008;-76
2021/04/26 02:48:52;;;;;;;;;;;5.60;99.90;;;;;;4973752;28;19906;-76
2021/04/26 02:51:21;;;;;;;;;;;5.70;99.90;;;;;;4973667;28;20353;-75
2021/04/26 02:53:48;;;;;;;;;;;5.60;99.90;;;;;;4973486;28;20005;-76
2021/04/26 02:56:14;;;;;;;;;;;5.50;99.90;;;;;;4973520;28;19906;-76
2021/04/26 02:58:41;;;;;;;;;;;5.40;99.90;;;;;;4973763;28;19972;-76
2021/04/26 03:01:07;;;;;;;;;;;5.40;99.90;;;;;;4973830;28;19925;-75
2021/04/26 03:03:34;;;;;;;;;;;5.40;99.90;;;;;;4973782;28;19921;-76
2021/04/26 03:06:00;;;;;;;;;;;5.40;99.90;;;;;;4971907;28;20275;-75
2021/04/26 03:08:30;;;;;;;;;;;5.30;99.90;;;;;;4973570;28;19906;-75
2021/04/26 03:10:56;;;;;;;;;;;5.20;99.90;;;;;;4972427;28;19956;-76
2021/04/26 03:13:22;;;;;;;;;;;5.10;99.90;;;;;;4973665;28;19910;-76
2021/04/26 03:15:47;;;;;;;;;;;5.00;99.90;;;;;;4972091;28;19930;-75
2021/04/26 03:18:13;;;;;;;;;;;4.90;99.90;;;;;;4972776;28;19906;-75
2021/04/26 03:20:39;;;;;;;;;;;4.90;99.90;;;;;;4977744;28;19933;-75
2021/04/26 03:23:06;;;;;;;;;;;4.80;99.90;;;;;;4977741;28;19906;-76
2021/04/26 03:25:34;;;;;;;;;;;4.80;99.90;;;;;;4977146;28;20374;-75
2021/04/26 03:27:59;;;;;;;;;;;4.70;99.90;;;;;;4976262;28;19916;-76
2021/04/26 03:30:26;;;;;;;;;;;4.60;99.90;;;;;;4976430;28;19988;-76
2021/04/26 03:32:52;;;;;;;;;;;4.50;99.90;;;;;;4978577;28;19906;-76
2021/04/26 03:35:19;;;;;;;;;;;4.40;99.90;;;;;;4984297;28;19989;-76
2021/04/26 03:37:45;;;;;;;;;;;4.30;99.90;;;;;;4991998;28;19912;-76
2021/04/26 03:40:11;;;;;;;;;;;4.20;99.90;;;;;;4996028;28;19910;-76
2021/04/26 03:42:36;;;;;;;;;;;4.20;99.90;;;;;;4993392;28;19906;-76
2021/04/26 03:45:02;;;;;;;;;;;4.10;99.90;;;;;;4976191;28;20282;-76
2021/04/26 03:47:27;;;;;;;;;;;4.10;99.90;;;;;;4976106;28;19957;-76
2021/04/26 03:49:53;;;;;;;;;;;4.20;99.90;;;;;;4977112;28;20276;-76
2021/04/26 03:52:18;;;;;;;;;;;4.20;99.90;;;;;;4975820;28;19982;-76
2021/04/26 03:54:44;;;;;;;;;;;4.20;99.90;;;;;;4976410;28;19910;-75
2021/04/26 03:57:09;;;;;;;;;;;4.10;99.90;;;;;;4977020;28;19910;-76
2021/04/26 03:59:35;;;;;;;;;;;4.10;99.90;;;;;;4976883;28;19906;-76
2021/04/26 04:02:00;;;;;;;;;;;4.20;99.90;;;;;;4976730;28;19910;-76
2021/04/26 04:04:26;;;;;;;;;;;4.10;99.90;;;;;;4976351;28;19953;-75
2021/04/26 04:06:51;;;;;;;;;;;4.10;99.90;;;;;;4977153;28;19910;-76
2021/04/26 04:09:17;;;;;;;;;;;4.10;99.90;;;;;;4975413;28;19906;-76
2021/04/26 04:11:43;;;;;;;;;;;4.00;99.90;;;;;;4975408;28;19913;-76
2021/04/26 04:14:09;;;;;;;;;;;4.10;99.90;;;;;;4976091;28;19935;-76
2021/04/26 04:16:34;;;;;;;;;;;4.10;99.90;;;;;;4976612;28;19913;-76
2021/04/26 04:19:00;;;;;;;;;;;4.10;99.90;;;;;;4975143;28;19914;-76
2021/04/26 04:21:25;;;;;;;;;;;4.00;99.90;;;;;;4976339;28;19906;-76
2021/04/26 04:23:51;;;;;;;;;;;4.10;99.90;;;;;;4974539;28;20005;-76
2021/04/26 04:26:16;;;;;;;;;;;4.00;99.90;;;;;;4975208;28;19964;-75
2021/04/26 04:28:42;;;;;;;;;;;4.00;99.90;;;;;;4976195;28;19913;-76
2021/04/26 04:31:07;;;;;;;;;;;4.10;99.90;;;;;;4976052;28;19921;-76
2021/04/26 04:33:33;;;;;;;;;;;4.20;99.90;;;;;;4976192;28;20366;-75
2021/04/26 04:35:59;;;;;;;;;;;4.20;99.90;;;;;;4975718;28;19905;-75
2021/04/26 04:38:25;;;;;;;;;;;4.20;99.90;;;;;;4975017;28;20362;-76
2021/04/26 04:40:51;;;;;;;;;;;4.30;99.90;;;;;;4974819;28;20377;-76
2021/04/26 04:43:17;;;;;;;;;;;4.40;99.90;;;;;;4976060;28;19925;-75
2021/04/26 04:45:43;;;;;;;;;;;4.30;99.90;;;;;;4974744;28;19906;-75
2021/04/26 04:48:08;;;;;;;;;;;4.50;99.90;;;;;;4974390;28;19984;-75
2021/04/26 04:50:34;;;;;;;;;;;4.30;99.90;;;;;;4973507;28;19910;-76
2021/04/26 04:52:59;;;;;;;;;;;4.50;99.90;;;;;;4973004;28;19965;-76
2021/04/26 04:55:25;;;;;;;;;;;4.60;99.90;;;;;;4974327;28;20376;-76
2021/04/26 04:57:50;;;;;;;;;;;4.70;99.90;;;;;;4973381;28;19906;-76
2021/04/26 05:00:16;;;;;;;;;;;4.80;99.90;;;;;;4973482;28;19906;-76
2021/04/26 05:02:41;;;;;;;;;;;4.90;99.90;;;;;;4974680;28;19910;-76
2021/04/26 05:05:07;;;;;;;;;;;5.00;99.90;;;;;;4973713;28;19976;-75
2021/04/26 05:07:32;;;;;;;;;;;5.20;99.90;;;;;;4972848;28;19910;-75
2021/04/26 05:09:58;;;;;;;;;;;5.50;99.90;;;;;;4974437;28;20401;-76
2021/04/26 05:12:24;;;;;;;;;;;5.60;99.90;;;;;;4974411;28;19906;-76
2021/04/26 05:14:49;;;;;;;;;;;5.80;99.90;;;;;;4972602;28;19945;-75
2021/04/26 05:17:16;;;;;;;;;;;6.00;99.90;;;;;;4973166;28;19912;-76
2021/04/26 05:19:42;;;;;;;;;;;6.60;99.90;;;;;;4972982;28;19953;-76
2021/04/26 05:22:07;;;;;;;;;;;7.30;99.90;;;;;;4973847;28;19910;-76
2021/04/26 05:24:33;;;;;;;;;;;7.80;99.90;;;;;;4972345;28;19961;-76
2021/04/26 05:26:58;;;;;;;;;;;8.00;99.90;;;;;;4974057;28;19910;-76
2021/04/26 05:29:24;;;;;;;;;;;8.40;99.90;;;;;;4973299;28;19913;-79
2021/04/26 05:31:49;;;;;;;3.30;2.10;;;9.20;99.90;;;;;;4972879;28;20291;-76
2021/04/26 05:34:15;;;;;;;1.52;1.27;;;9.70;99.90;;;;;;4973029;28;20049;-76
2021/04/26 05:36:40;;;;;;;3.40;1.90;;;9.60;99.90;;;;;;4973270;28;20089;-76
2021/04/26 05:39:06;;;;;;;5.40;2.13;;;9.50;99.90;;;;;;4973605;28;20030;-76
2021/04/26 05:41:32;;;;;;;2.55;1.88;;;10.40;99.90;;;;;;4989255;28;20037;-75
2021/04/26 05:43:57;;;;;;;2.75;1.67;;;10.90;99.90;;;;;;4991012;28;20034;-76
2021/04/26 05:46:24;;;;;;;5.80;1.42;;;12.90;96.20;;;;;;4990521;28;20026;-76
2021/04/26 05:48:50;;;;;;;2.83;2.00;;;12.80;90.20;;;;;;5007622;28;20034;-76
2021/04/26 05:51:16;;;;;;;2.28;1.58;;;13.20;90.60;;;;;;4991147;28;20018;-76
2021/04/26 05:53:41;;;;;;;2.60;1.63;;;14.10;81.90;;;;;;4992434;28;20409;-76
2021/04/26 05:56:07;;;;;;;1.90;1.70;;;13.60;79.70;;;;;;4992411;28;20102;-76
2021/04/26 05:58:33;;;;;;;2.20;1.77;;;12.90;83.00;;;;;;4991228;28;20497;-76
2021/04/26 06:01:00;;;;;;;3.58;2.20;;;12.40;86.50;;;;;;4992447;28;20379;-76
2021/04/26 06:03:25;;;;;;;1.67;1.25;;;14.50;80.80;;;;;;4991135;28;20031;-76
2021/04/26 06:05:51;;;;;;;5.70;1.70;;;14.30;74.90;;;;;;4977521;28;20097;-76
2021/04/26 06:08:17;;;;;;;2.17;1.45;;;16.50;71.20;;;;;;4981075;28;20029;-76
2021/04/26 06:10:42;;;;;;;3.63;1.58;;;17.80;64.50;;;;;;4990583;28;20066;-76
2021/04/26 06:13:08;;;;;;;2.75;1.98;;;18.60;59.60;;;;;;4991843;28;20027;-78
2021/04/26 06:15:33;;;;;;;4.25;1.55;;;19.00;57.10;;;;;;4992069;28;20030;-78
2021/04/26 06:18:16;;;;;;;3.88;1.73;;;20.00;54.80;;;;;;4993620;28;20027;-78
2021/04/26 06:20:44;;;;;;;2.88;1.80;;;19.60;52.90;;;;;;4992919;28;20084;-78
2021/04/26 06:23:10;;;;;;;3.38;1.90;;;19.70;52.60;;;;;;4992998;28;20478;-78
2021/04/26 06:25:37;;;;;;;3.42;2.30;;;20.90;51.60;;;;;;4993253;28;20046;-78
2021/04/26 06:28:04;;;;;;;3.30;1.70;;;21.80;49.10;;;;;;4993449;28;20025;-78
2021/04/26 06:30:29;;;;;;;3.42;1.55;;;22.20;47.30;;;;;;4993111;28;20072;-78
2021/04/26 06:32:55;;;;;;;2.97;1.65;;;22.10;45.90;;;;;;4993899;28;20030;-80
2021/04/26 06:35:21;;;;;;;3.90;2.25;;;20.70;46.40;;;;;;4989833;28;20076;-78
2021/04/26 06:37:46;;;;;;;3.88;2.00;;;20.60;48.80;;;;;;4991293;28;20077;-79
2021/04/26 06:40:13;;;;;;;3.67;1.90;;;21.30;47.50;;;;;;4992271;28;20030;-80
2021/04/26 06:42:38;;;;;;;1.60;1.50;;;21.40;47.70;;;;;;4994219;28;20401;-80
2021/04/26 06:45:05;;;;;;;2.80;1.65;;;22.10;45.90;;;;;;4994918;28;20261;-80
2021/04/26 06:50:54;;;;;;;1.60;1.40;;;22.30;44.30;;;;;;4991554;28;20421;-77
2021/04/26 06:53:20;;;;;;;3.80;2.25;;;23.50;42.60;;;;;;4993261;28;20026;-78
2021/04/26 06:55:45;;;;;;;5.70;2.30;;;23.50;43.20;;;;;;4993635;28;20037;-78
2021/04/26 06:58:11;;;;;;;;;;;23.70;41.40;;;;;;4993329;28;19953;-78
2021/04/26 07:00:36;;;;;;;3.05;1.95;;;23.10;42.80;;;;;;4994369;28;19910;-77
2021/04/26 07:03:03;;;;;;;4.50;1.50;;;23.80;41.70;;;;;;4993436;28;20023;-77
2021/04/26 07:05:28;;;;;;;;;;;23.60;42.30;;;;;;4991208;28;20041;-77
2021/04/26 07:07:54;;;;;;;2.00;1.80;;;24.60;41.30;;;;;;4992452;28;19909;-77
2021/04/26 07:10:19;;;;;;;4.25;2.25;;;24.80;39.70;;;;;;4992678;28;20034;-77
2021/04/26 07:12:45;;;;;;;1.93;1.83;;;24.50;39.90;;;;;;4991429;28;20015;-77
2021/04/26 07:15:12;;;;;;;;;;;24.80;40.60;;;;;;4990834;28;20484;-77
2021/04/26 07:17:37;;;;;;;;;;;24.80;41.20;;;;;;4993012;28;19906;-78
2021/04/26 07:20:07;;;;;;;;;;;26.00;40.20;;;;;;4993353;28;19912;-78
2021/04/26 07:22:33;;;;;;;2.35;1.70;;;24.90;38.70;;;;;;4992706;28;19933;-77
2021/04/26 07:24:59;;;;;;;3.00;1.70;;;23.30;40.20;;;;;;4991624;28;20030;-77
2021/04/26 07:27:24;;;;;;;2.58;1.27;;;24.60;39.80;;;;;;4992191;28;20030;-77
2021/04/26 07:29:50;;;;;;;2.70;2.03;;;23.30;39.30;;;;;;4992660;28;20371;-77
2021/04/26 07:32:16;;;;;;;1.92;1.50;;;24.70;39.70;;;;;;4990611;28;20026;-77
2021/04/26 07:34:42;;;;;;;2.27;1.80;;;25.40;38.20;;;;;;4991225;28;20030;-78
2021/04/26 07:37:07;;;;;;;7.67;1.90;;;24.80;38.60;;;;;;4991275;28;20026;-77
2021/04/26 07:39:33;;;;;;;1.60;1.50;;;22.00;40.60;;;;;;4992112;28;20125;-77
2021/04/26 07:41:59;;;;;;;2.80;1.48;;;22.00;40.90;;;;;;4992410;28;20034;-78
2021/04/26 07:44:26;;;;;;;2.63;1.83;;;22.80;39.80;;;;;;4993016;28;20030;-78
2021/04/26 07:46:52;;;;;;;;;;;24.50;41.10;;;;;;4993600;28;20036;-79
2021/04/26 07:49:18;;;;;;;;;;;25.90;38.80;;;;;;4993630;28;19906;-78
2021/04/26 07:51:43;;;;;;;4.30;1.90;;;24.20;37.90;;;;;;4993366;28;20394;-77
2021/04/26 07:54:09;;;;;;;;;;;22.90;39.40;;;;;;4991328;28;20104;-78
2021/04/26 07:56:35;;;;;;;;;;;23.80;40.40;;;;;;4992235;28;19910;-77
2021/04/26 07:59:01;;;;;;;4.18;1.80;;;22.80;38.80;;;;;;4990704;28;19909;-77
2021/04/26 08:01:27;;;;;;;4.97;2.10;;;22.60;39.90;;;;;;4991795;28;20038;-76
2021/04/26 08:03:53;;;;;;;6.38;2.10;;;22.30;39.90;;;;;;4990235;28;20026;-76
2021/04/26 08:06:18;;;;;;;2.75;1.15;;;23.60;40.00;;;;;;4993984;28;20673;-77
2021/04/26 08:08:44;;;;;;;;;;;24.20;38.40;;;;;;4994412;28;19955;-76
2021/04/26 08:11:10;;;;;;;1.57;1.47;;;23.90;40.50;;;;;;4995175;28;20387;-76
2021/04/26 08:13:35;;;;;;;3.60;1.50;;;23.60;38.90;;;;;;4996729;28;20023;-76
2021/04/26 08:16:01;;;;;;;1.90;1.30;;;24.40;37.50;;;;;;4996227;28;20682;-79
2021/04/26 08:18:26;;;;;;;2.53;1.10;;;24.90;37.50;;;;;;4989903;28;20093;-79
2021/04/26 08:20:52;;;;;;;3.43;1.30;;;24.40;38.00;;;;;;4985829;28;20130;-80
2021/04/26 08:23:18;;;;;;;2.70;1.50;;;26.00;37.10;;;;;;4978996;28;20073;-79
2021/04/26 08:25:44;;;;;;;2.13;1.20;;;26.10;38.00;;;;;;4977839;28;20035;-78
2021/04/26 08:28:11;;;;;;;4.63;1.90;;;26.70;36.80;;;;;;4978305;28;20438;-78
2021/04/26 08:30:38;;;;;;;2.83;1.42;;;26.40;36.70;;;;;;4976613;28;20023;-78
2021/04/26 08:33:04;;;;;;;2.40;1.38;;;25.90;36.80;;;;;;4978593;28;20561;-79
2021/04/26 08:35:30;;;;;;;2.10;1.33;;;24.20;37.00;;;;;;4996212;28;20030;-79
2021/04/26 08:37:56;;;;;;;2.77;1.53;;;24.40;38.00;;;;;;4997360;28;20030;-78
2021/04/26 08:40:21;;;;;;;1.40;1.30;;;26.40;37.70;;;;;;4996097;28;20045;-78
2021/04/26 08:42:47;;;;;;;6.03;2.03;;;25.50;36.90;;;;;;4996876;28;20030;-79
2021/04/26 08:45:12;;;;;;;2.40;1.83;;;25.50;36.80;;;;;;5004701;28;20039;-78
2021/04/26 08:47:40;;;;;;;1.87;1.20;;;26.00;37.10;;;;;;4976387;28;20026;-79
2021/04/26 08:50:07;;;;;;;1.75;1.25;;;24.80;37.40;;;;;;4978132;28;20031;-79
2021/04/26 08:52:33;;;;;;;2.55;1.58;;;25.10;37.40;;;;;;4994220;28;20482;-78
2021/04/26 08:54:59;;;;;;;2.30;1.37;;;24.90;36.70;;;;;;4977979;28;20110;-79
2021/04/26 08:57:24;;;;;;;1.00;0.87;;;26.70;37.70;;;;;;4978933;28;20348;-79
2021/04/26 08:59:50;;;;;;;2.10;1.30;;;27.10;35.80;;;;;;4978549;28;20030;-78
2021/04/26 09:02:16;;;;;;;1.27;1.17;;;26.30;35.80;;;;;;4984161;28;20034;-78
2021/04/26 09:04:51;;;;;;;4.10;1.70;;;26.90;34.70;;;;;;4981451;28;20113;-78
2021/04/26 09:07:18;;;;;;;1.33;1.23;;;24.70;37.60;;;;;;4997450;28;20378;-78
2021/04/26 09:09:44;;;;;;;2.50;1.67;;;25.70;35.60;;;;;;4995028;28;20022;-78
2021/04/26 09:12:30;;;;;;;3.80;1.50;;;26.40;35.60;;;;;;5012903;28;20398;-79
2021/04/26 09:14:58;;;;;;;2.80;1.58;;;26.50;35.70;;;;;;4993176;28;20027;-78
2021/04/26 09:17:35;;;;;;;1.65;1.08;;;27.00;35.50;;;;;;4975236;28;20042;-78
2021/04/26 09:20:17;;;;;;;3.13;1.15;;;28.50;35.90;;;;;;4976004;28;20111;-78
2021/04/26 09:22:42;;;;;;;1.67;1.55;;;27.70;34.60;;;;;;4979696;28;20102;-79
2021/04/26 09:25:31;;;;;;;2.13;1.77;;;27.50;34.90;;;;;;4973841;28;20089;-78
2021/04/26 09:27:56;;;;;;;;;;;26.70;35.50;;;;;;4975333;28;20065;-79
2021/04/26 09:30:58;;;;;;;2.80;1.63;;;26.80;34.60;;;;;;4978239;28;19906;-79
2021/04/26 09:33:33;;;;;;;2.30;1.50;;;26.40;37.40;;;;;;4974996;28;20046;-77
2021/04/26 09:36:03;;;;;;;1.55;1.30;;;28.30;35.10;;;;;;4976073;28;20156;-78
2021/04/26 09:38:34;;;;;;;2.75;1.67;;;27.30;34.60;;;;;;4978104;28;20038;-78
2021/04/26 09:41:20;;;;;;;2.97;1.45;;;27.80;36.60;;;;;;4993180;28;20105;-78
2021/04/26 09:43:52;;;;;;;1.35;1.02;;;27.70;34.00;;;;;;4996513;28;20053;-78
2021/04/26 09:46:21;;;;;;;2.45;1.35;;;28.70;34.40;;;;;;4996161;28;20034;-78
2021/04/26 09:48:46;;;;;;;2.35;1.40;;;28.50;34.40;;;;;;5012056;28;20022;-78
2021/04/26 09:51:22;;;;;;;;;;;27.60;35.00;;;;;;4994767;28;20500;-79
2021/04/26 09:53:53;;;;;;;2.35;1.15;;;27.00;35.00;;;;;;4994353;28;20373;-78
2021/04/26 09:56:30;;;;;;;1.95;1.58;;;26.40;35.60;;;;;;4995271;28;20114;-78
2021/04/26 09:58:57;;;;;;;;;;;26.90;34.50;;;;;;4993875;28;20030;-78
2021/04/26 10:01:23;;;;;;;;;;;27.30;35.40;;;;;;4995847;28;19906;-78
2021/04/26 10:03:48;;;;;;;;;;;25.80;37.40;;;;;;5010383;28;20436;-78
2021/04/26 10:06:15;;;;;;;;;;;26.80;36.90;;;;;;4995135;28;19913;-79
2021/04/26 10:08:43;;;;;;;;;;;26.00;35.00;;;;;;4996359;28;20381;-78
2021/04/26 10:11:09;;;;;;;;;;;24.60;37.70;;;;;;4995118;28;19906;-77
2021/04/26 10:13:35;;;;;;;;;;;25.40;37.40;;;;;;4994876;28;19906;-77
2021/04/26 10:16:03;;;;;;;;;;;24.90;37.80;;;;;;4992973;28;19913;-76
2021/04/26 10:18:33;;;;;;;;;;;24.20;37.90;;;;;;4992336;28;19937;-77
2021/04/26 10:20:59;;;;;;;;;;;24.90;38.00;;;;;;4993283;28;19912;-75
2021/04/26 10:23:34;;;;;;;;;;;24.60;37.20;;;;;;5008350;28;19953;-77
2021/04/26 10:25:59;;;;;;;;;;;26.50;37.50;;;;;;5008428;28;20297;-76
2021/04/26 10:28:32;;;;;;;;;;;27.30;37.80;;;;;;4993174;28;19910;-77
2021/04/26 10:31:04;;;;;;;;;;;25.90;35.70;;;;;;4993656;28;19913;-77
2021/04/26 10:34:08;;;;;;;;;;;24.90;36.00;;;;;;4993396;28;19910;-76
2021/04/26 10:36:41;;;;;;;;;;;25.60;36.60;;;;;;4966322;28;19910;-77
2021/04/26 10:39:07;;;;;;;;;;;25.40;37.30;;;;;;4962191;28;19941;-77
2021/04/26 10:41:52;;;;;;;1.93;1.70;;;24.10;38.20;;;;;;4981924;28;19910;-76
2021/04/26 10:44:36;;;;;;;;;;;24.60;36.30;;;;;;4991201;28;20273;-76
2021/04/26 10:47:17;;;;;;;3.10;1.80;;;24.40;38.00;;;;;;5005459;28;19917;-76
2021/04/26 10:50:14;;;;;;;3.25;1.65;;;24.00;35.80;;;;;;4982735;28;20034;-75
2021/04/26 10:52:53;;;;;;;3.05;1.35;;;24.30;37.70;;;;;;4976616;28;20142;-76
2021/04/26 10:55:19;;;;;;;2.20;1.27;;;25.50;37.80;;;;;;4971754;28;20085;-76
2021/04/26 10:57:47;;;;;;;1.43;1.17;;;26.90;34.30;;;;;;4972008;28;20471;-77
2021/04/26 11:00:22;;;;;;;2.03;1.40;;;28.30;34.20;;;;;;4978744;28;20026;-77
2021/04/26 11:02:52;;;;;;;2.08;1.40;;;27.60;35.20;;;;;;4998117;28;20033;-77
2021/04/26 11:05:17;;;;;;;;;;;27.40;36.10;;;;;;4980171;28;20026;-77
2021/04/26 11:07:46;;;;;;;;;;;27.60;34.80;;;;;;4988294;28;19920;-77
2021/04/26 11:10:31;;;;;;;;;;;25.90;35.30;;;;;;4983202;28;19909;-76
2021/04/26 11:12:59;;;;;;;2.25;1.50;;;25.00;37.20;;;;;;4983169;28;19913;-76
2021/04/26 11:15:26;;;;;;;1.60;1.20;;;26.10;35.00;;;;;;4981387;28;20022;-77
2021/04/26 11:17:53;;;;;;;9.75;1.30;;;28.10;36.60;;;;;;4980224;28;19964;-76
2021/04/26 11:20:22;;;;;;;2.75;0.98;;;28.00;35.00;;;;;;4978248;28;20394;-77
2021/04/26 11:22:49;;;;;;;1.58;1.38;;;28.80;34.50;;;;;;4981290;28;20025;-77
2021/04/26 11:25:30;;;;;;;;;;;28.30;34.40;;;;;;4974208;28;20034;-78
2021/04/26 11:27:56;;;;;;;1.58;1.27;;;27.00;35.50;;;;;;4973743;28;19916;-77
2021/04/26 11:30:23;;;;;;;2.95;1.20;;;25.80;35.50;;;;;;4973396;28;20031;-77
2021/04/26 11:32:58;;;;;;;2.65;1.58;;;26.80;36.90;;;;;;4972114;28;20031;-77
2021/04/26 11:35:23;;;;;;;1.30;0.90;;;26.10;36.20;;;;;;4988042;28;20023;-78
2021/04/26 11:37:50;;;;;;;1.20;0.90;;;25.90;35.70;;;;;;4992157;28;20065;-77
2021/04/26 11:40:26;;;;;;;;;;;26.80;36.20;;;;;;4983459;28;20030;-77
2021/04/26 11:43:00;;;;;;;2.72;1.10;;;27.30;34.70;;;;;;4977270;28;20095;-77
2021/04/26 11:45:26;;;;;;;;;;;25.30;34.70;;;;;;4976163;28;20027;-77
2021/04/26 11:47:51;;;;;;;3.53;1.87;;;24.30;37.20;;;;;;4976462;28;19917;-77
2021/04/26 11:50:17;;;;;;;;;;;23.20;38.10;;;;;;4976330;28;20487;-77
2021/04/26 11:52:43;;;;;;;;;;;22.80;39.30;;;;;;4988883;28;19968;-77
2021/04/26 11:55:10;;;;;;;;;;;21.70;40.10;;;;;;4995853;28;19905;-77
2021/04/26 11:57:41;;;;;;;;;;;20.60;40.40;;;;;;4994891;28;20374;-77
2021/04/26 12:00:14;;;;;;;;;;;20.20;41.40;;;;;;4995541;28;20384;-77
2021/04/26 12:02:48;;;;;;;;;;;20.30;45.20;;;;;;4994797;28;19945;-77
2021/04/26 12:05:15;;;;;;;;;;;20.10;44.70;;;;;;4993978;28;20052;-77
2021/04/26 12:07:41;;;;;;;;;;;20.20;44.10;;;;;;5010963;28;19913;-77
2021/04/26 12:10:09;;;;;;;;;;;20.20;41.20;;;;;;4994328;28;20572;-77
2021/04/26 12:12:34;;;;;;;;;;;19.80;45.40;;;;;;4994653;28;19910;-77
2021/04/26 12:15:13;;;;;;;;;;;19.70;42.60;;;;;;4995142;28;19906;-77
2021/04/26 12:17:40;;;;;;;;;;;19.60;43.00;;;;;;4993884;28;19906;-77
2021/04/26 12:20:17;;;;;;;;;;;19.40;42.00;;;;;;4994460;28;19906;-77
2021/04/26 12:22:48;;;;;;;;;;;18.70;43.10;;;;;;4994593;28;19905;-77
2021/04/26 12:25:14;;;;;;;;;;;18.30;45.00;;;;;;4995163;28;19914;-78
2021/04/26 12:27:43;;;;;;;;;;;18.80;46.50;;;;;;4994988;28;19917;-77
2021/04/26 12:30:13;;;;;;;;;;;18.90;43.40;;;;;;4975340;28;19913;-78
2021/04/26 12:32:39;;;;;;;;;;;19.10;46.40;;;;;;4974961;28;19916;-78
2021/04/26 12:35:06;;;;;;;;;;;19.10;45.80;;;;;;4974465;28;19906;-78
2021/04/26 12:37:35;;;;;;;;;;;19.30;43.40;;;;;;4977164;28;19917;-78
2021/04/26 12:40:20;;;;;;;;;;;19.80;44.70;;;;;;4975665;28;19929;-77
2021/04/26 12:42:46;;;;;;;;;;;19.90;43.10;;;;;;4990768;28;19997;-77
2021/04/26 12:45:14;;;;;;;;;;;19.50;41.40;;;;;;4975355;28;20060;-77
2021/04/26 12:47:46;;;;;;;;;;;19.80;43.80;;;;;;4974938;28;19910;-78
2021/04/26 12:50:17;;;;;;;;;;;20.00;44.60;;;;;;4975476;28;20000;-77
2021/04/26 12:53:01;;;;;;;;;;;20.00;42.40;;;;;;4976091;28;19918;-77
2021/04/26 12:55:26;;;;;;;;;;;20.30;46.90;;;;;;4976331;28;19912;-77
2021/04/26 12:58:02;;;;;;;;;;;20.30;46.50;;;;;;4982994;28;19906;-79
2021/04/26 13:00:34;;;;;;;;;;;19.70;42.40;;;;;;4993676;28;19916;-79
2021/04/26 13:03:17;;;;;;;;;;;19.40;44.30;;;;;;4997493;28;19909;-79
2021/04/26 13:05:43;;;;;;;;;;;19.40;44.50;;;;;;5012190;28;19964;-78
2021/04/26 13:08:08;;;;;;;;;;;19.40;42.60;;;;;;5011116;28;19972;-77
2021/04/26 13:10:37;;;;;;;;;;;18.90;42.70;;;;;;5009535;28;19906;-77
2021/04/26 13:13:02;;;;;;;;;;;18.70;43.80;;;;;;4993458;28;19906;-77
2021/04/26 13:15:28;;;;;;;;;;;19.00;42.50;;;;;;4996446;28;20015;-79
2021/04/26 13:18:09;;;;;;;;;;;19.10;42.40;;;;;;4997092;28;19913;-78
2021/04/26 13:20:34;;;;;;;;;;;18.70;43.00;;;;;;4996516;28;20334;-78
2021/04/26 13:23:20;;;;;;;;;;;18.60;43.50;;;;;;4993732;28;20331;-80
2021/04/26 13:25:46;;;;;;;;;;;19.10;43.70;;;;;;4996499;28;19909;-79
2021/04/26 13:28:31;;;;;;;;;;;19.10;42.50;;;;;;4996257;28;19910;-77
2021/04/26 13:30:59;;;;;;;;;;;19.50;43.90;;;;;;4995396;28;19917;-78
2021/04/26 13:33:25;;;;;;;;;;;19.70;43.40;;;;;;4994406;28;20281;-77
2021/04/26 13:35:51;;;;;;;;;;;19.70;41.30;;;;;;4995055;28;19910;-77
2021/04/26 13:38:18;;;;;;;;;;;19.30;42.40;;;;;;4994244;28;19912;-78
2021/04/26 13:40:44;;;;;;;;;;;19.40;42.40;;;;;;4993794;28;20004;-77
2021/04/26 13:43:09;;;;;;;;;;;19.40;43.50;;;;;;5010433;28;19910;-77
2021/04/26 13:45:35;;;;;;;;;;;18.90;41.60;;;;;;4994501;28;19913;-77
2021/04/26 13:48:00;;;;;;;;;;;19.20;41.60;;;;;;4994355;28;19917;-77
2021/04/26 13:50:27;;;;;;;;;;;19.30;42.90;;;;;;4993213;28;19912;-78
2021/04/26 13:52:52;;;;;;;;;;;19.20;45.10;;;;;;5009560;28;20052;-77
2021/04/26 13:55:17;;;;;;;;;;;19.30;42.70;;;;;;4993043;28;20448;-77
2021/04/26 13:57:43;;;;;;;;;;;19.40;44.70;;;;;;4994507;28;20385;-77